Airfield :
LOGIN :

Register | Disclaimer

   EN    FR    IT 

 










Legend :    VFR   Marginal VFR   IFR   Intensive IFR   Very Intensive IFR
Visi :
Ceiling :
>= 8 km
>= 3000ft
5 to 8 km
1000 to 3000 ft
1500m to 5 km
500 to 1000 ft
800 to 1500m
200 to 500 ft
< 800m
< 200 ft
Symbols :   Thunderstorms  Fog  Heavy snow  Heavy precipitations  Wind > 20 kt
SIGMETs :     Misc.  Thunderstorms  Icing  Turbulence  Mountain Waves  Volcanic Ashes







- Airport Elevation : -15 ft
- IATA code : RTM


EHRD - Rotterdam Zestienhoven

CURRENT METAR :
  • 180755Z AUTO 18008KT 9999 NSC 06/03 Q1017 NOSIG

EXPIRED METARs :
  • 180725Z AUTO 17006KT 140V200 9999 NSC 05/02 Q1017 NOSIG
  • 180655Z AUTO 18007KT 9999 NSC 06/02 Q1017 NOSIG
  • 180625Z AUTO 18008KT 9999 NSC 06/02 Q1017 NOSIG
  • 180555Z AUTO 18007KT 9999 NCD 05/01 Q1017 NOSIG
  • 180525Z AUTO 18003KT 150V220 9999 NSC 05/02 Q1017 NOSIG

TAF TAF EHRD
Valid from the 18 at 06:00 until the 19 at 12:00 UTC


180502Z 1806/1912 17007KT CAVOK
BECMG 1811/1814 22008KT
BECMG 1819/1822 7000 -RA SCT018 BKN025
PROB30
TEMPO 1822/1902 4500 -RADZ BR SCT008 BKN014
BECMG 1900/1903 23012KT 9999 NSW
PROB30
TEMPO 1905/1910 BKN014
BECMG 1909/1912 25018KT
No reported NOTAMs for that airfield.



MET'MAP, your aeronautical weather chart ! - Copyright ORBIFLY December 2007 - Disclaimer

ORBIFLY MET'MAP TEAM :

Programming & Development : Alexandra Zaïnal
Concept & Development : Baudouin d'Aumeries
Co-Development & Prog : Marc-Olivier Méhu
Technical & hardware support : Manuel Goepfert

Contact : metmap@orbifly.com




SOURCES & CREDITS :

   NOAA